createdAt,value
2023-03-13T00:01:42.575Z,32.72
2023-03-13T00:04:28.585Z,30.63
2023-03-13T00:06:56.035Z,31.70
2023-03-13T00:09:23.706Z,29.98
2023-03-13T00:11:53.771Z,31.27
2023-03-13T00:14:20.670Z,27.30
2023-03-13T00:16:48.134Z,29.75
2023-03-13T00:19:16.366Z,31.13
2023-03-13T00:21:43.241Z,31.38
2023-03-13T00:24:11.674Z,32.72
2023-03-13T00:26:38.679Z,34.15
2023-03-13T00:29:05.821Z,36.83
2023-03-13T00:31:34.279Z,35.10
2023-03-13T00:34:03.845Z,34.92
2023-03-13T00:36:34.013Z,39.53
2023-03-13T00:39:02.351Z,38.70
2023-03-13T00:41:31.471Z,37.47
2023-03-13T00:43:59.029Z,37.38
2023-03-13T00:46:28.695Z,34.80
2023-03-13T00:48:56.187Z,36.28
2023-03-13T00:51:24.838Z,36.47
2023-03-13T00:53:51.887Z,32.95
2023-03-13T00:56:20.629Z,32.53
2023-03-13T00:58:49.107Z,30.05
2023-03-13T01:01:28.816Z,28.13
2023-03-13T01:03:58.547Z,26.80
2023-03-13T01:06:35.134Z,25.95
2023-03-13T01:09:04.977Z,23.85
2023-03-13T01:11:35.198Z,23.67
2023-03-13T01:14:21.106Z,26.08
2023-03-13T01:16:48.530Z,29.55
2023-03-13T01:19:17.249Z,29.67
2023-03-13T01:21:45.976Z,29.45
2023-03-13T01:24:13.424Z,30.50
2023-03-13T01:26:40.475Z,30.13
2023-03-13T01:29:07.838Z,31.63
2023-03-13T01:31:35.996Z,32.33
2023-03-13T01:34:06.130Z,31.25
2023-03-13T01:36:35.505Z,31.23
2023-03-13T01:39:02.786Z,31.30
2023-03-13T01:41:31.099Z,30.65
2023-03-13T01:43:58.980Z,30.15
2023-03-13T01:46:28.146Z,31.27
2023-03-13T01:49:00.937Z,29.33
2023-03-13T01:51:35.496Z,30.30
2023-03-13T01:54:11.999Z,29.33
2023-03-13T01:59:17.468Z,25.17
2023-03-13T02:01:47.793Z,30.60
2023-03-13T02:04:16.905Z,34.33
2023-03-13T02:06:48.360Z,30.98
2023-03-13T02:09:20.147Z,27.25
2023-03-13T02:12:00.168Z,27.67
2023-03-13T02:14:30.030Z,29.13
2023-03-13T02:16:57.122Z,23.42
2023-03-13T02:19:44.117Z,24.48
2023-03-13T02:24:53.651Z,22.73
2023-03-13T02:27:20.574Z,23.15
2023-03-13T02:29:48.445Z,21.65
2023-03-13T02:32:16.692Z,21.42
2023-03-13T02:34:49.215Z,20.45
2023-03-13T02:37:17.897Z,20.58
2023-03-13T02:39:48.674Z,20.45
2023-03-13T02:42:19.274Z,20.20
2023-03-13T02:44:48.664Z,20.17
2023-03-13T02:47:21.178Z,21.17
2023-03-13T02:50:06.865Z,19.73
2023-03-13T02:52:39.347Z,24.63
2023-03-13T02:55:15.720Z,24.75
2023-03-13T03:00:13.203Z,20.92
2023-03-13T03:02:40.392Z,18.83
2023-03-13T03:05:08.650Z,20.95
2023-03-13T03:07:35.594Z,20.70
2023-03-13T03:10:02.781Z,19.75
2023-03-13T03:12:30.860Z,19.23
2023-03-13T03:14:58.410Z,18.23
2023-03-13T03:17:26.222Z,19.23
2023-03-13T03:19:53.243Z,18.27
2023-03-13T03:22:20.132Z,19.17
2023-03-13T03:24:47.594Z,19.15
2023-03-13T03:27:15.014Z,18.67
2023-03-13T03:29:41.978Z,21.17
2023-03-13T03:32:09.073Z,21.15
2023-03-13T03:34:36.320Z,22.38
2023-03-13T03:37:03.308Z,21.52
2023-03-13T03:39:30.493Z,18.25
2023-03-13T03:41:57.481Z,18.90
2023-03-13T03:44:24.502Z,18.58
2023-03-13T03:46:51.523Z,17.42
2023-03-13T03:49:18.402Z,17.50
2023-03-13T03:51:45.254Z,14.13
2023-03-13T03:54:12.198Z,14.52
2023-03-13T03:56:39.145Z,11.98
2023-03-13T03:59:06.147Z,12.90
2023-03-13T04:01:33.198Z,12.43
2023-03-13T04:04:00.229Z,12.45
2023-03-13T04:06:27.679Z,13.52
2023-03-13T04:08:56.119Z,13.40
2023-03-13T04:11:23.361Z,14.18
2023-03-13T04:13:50.357Z,14.50
2023-03-13T04:16:17.653Z,14.88
2023-03-13T04:18:44.569Z,16.58
2023-03-13T04:21:11.640Z,17.45
2023-03-13T04:23:38.653Z,17.95
2023-03-13T04:26:05.560Z,18.27
2023-03-13T04:28:32.588Z,20.10
2023-03-13T04:30:59.815Z,20.13
2023-03-13T04:33:27.271Z,20.25
2023-03-13T04:35:54.358Z,19.20
2023-03-13T04:38:21.573Z,18.55
2023-03-13T04:40:48.999Z,17.83
2023-03-13T04:43:16.371Z,16.95
2023-03-13T04:45:43.446Z,19.45
2023-03-13T04:48:10.790Z,17.88
2023-03-13T04:50:37.683Z,20.50
2023-03-13T04:53:04.799Z,21.17
2023-03-13T04:55:31.810Z,21.23
2023-03-13T04:57:58.750Z,21.00
2023-03-13T05:00:25.780Z,23.55
2023-03-13T05:02:53.524Z,25.27
2023-03-13T05:05:20.595Z,25.27
2023-03-13T05:07:47.662Z,24.15
2023-03-13T05:10:14.776Z,24.50
2023-03-13T05:12:42.886Z,23.08
2023-03-13T05:15:10.157Z,21.63
2023-03-13T05:17:37.390Z,20.13
2023-03-13T05:20:06.972Z,20.25
2023-03-13T05:22:34.235Z,20.30
2023-03-13T05:25:01.138Z,21.52
2023-03-13T05:27:28.125Z,20.55
2023-03-13T05:29:55.194Z,22.15
2023-03-13T05:32:22.152Z,22.52
2023-03-13T05:34:49.927Z,22.58
2023-03-13T05:37:16.939Z,21.73
2023-03-13T05:39:44.111Z,22.98
2023-03-13T05:42:11.093Z,22.25
2023-03-13T05:44:38.081Z,21.92
2023-03-13T05:47:05.167Z,21.35
2023-03-13T05:49:32.191Z,22.40
2023-03-13T05:51:59.034Z,27.40
2023-03-13T05:54:26.358Z,25.98
2023-03-13T05:56:53.557Z,24.98
2023-03-13T05:59:20.570Z,22.95
2023-03-13T06:01:47.530Z,20.75
2023-03-13T06:04:17.651Z,20.35
2023-03-13T06:06:46.897Z,18.23
2023-03-13T06:09:15.541Z,17.90
2023-03-13T06:11:43.608Z,15.13
2023-03-13T06:14:10.561Z,15.32
2023-03-13T06:16:37.782Z,13.98
2023-03-13T06:19:04.852Z,14.32
2023-03-13T06:21:31.934Z,15.57
2023-03-13T06:24:01.419Z,14.80
2023-03-13T06:26:29.171Z,16.35
2023-03-13T06:28:56.294Z,15.98
2023-03-13T06:31:25.069Z,15.73
2023-03-13T06:34:02.102Z,15.65
2023-03-13T06:36:29.657Z,17.73
2023-03-13T06:38:56.820Z,17.50
2023-03-13T06:41:24.773Z,17.65
2023-03-13T06:43:51.782Z,16.33
2023-03-13T06:46:22.352Z,15.85
2023-03-13T06:48:50.610Z,15.52
2023-03-13T06:51:20.323Z,14.45
2023-03-13T06:53:48.149Z,14.18
2023-03-13T06:56:15.479Z,13.80
2023-03-13T06:58:43.514Z,13.32
2023-03-13T07:01:14.007Z,13.38
2023-03-13T07:03:41.713Z,14.32
2023-03-13T07:06:10.138Z,12.65
2023-03-13T07:08:37.707Z,11.32
2023-03-13T07:11:10.053Z,11.32
2023-03-13T07:13:38.753Z,12.57
2023-03-13T07:16:08.262Z,14.27
2023-03-13T07:18:36.545Z,15.88
2023-03-13T07:21:07.833Z,14.70
2023-03-13T07:23:36.915Z,14.40
2023-03-13T07:26:11.402Z,14.90
2023-03-13T07:28:38.281Z,13.98
2023-03-13T07:31:11.860Z,12.48
2023-03-13T07:33:38.891Z,14.23
2023-03-13T07:36:08.487Z,14.95
2023-03-13T07:38:36.353Z,14.82
2023-03-13T07:41:04.180Z,14.70
2023-03-13T07:43:31.693Z,16.63
2023-03-13T07:46:00.364Z,16.95
2023-03-13T07:48:33.748Z,15.50
2023-03-13T07:51:01.090Z,16.23
2023-03-13T07:53:29.275Z,17.33
2023-03-13T07:56:02.749Z,17.77
2023-03-13T07:58:32.351Z,18.60
2023-03-13T08:00:59.620Z,18.42
2023-03-13T08:03:27.832Z,19.35
2023-03-13T08:06:02.582Z,16.58
2023-03-13T08:08:29.757Z,15.27
2023-03-13T08:11:11.618Z,16.30
2023-03-13T08:13:39.048Z,17.13
2023-03-13T08:16:19.667Z,14.63
2023-03-13T08:18:50.455Z,19.08
2023-03-13T08:21:21.241Z,13.65
2023-03-13T08:23:49.524Z,12.63
2023-03-13T08:26:19.658Z,13.27
2023-03-13T08:28:55.978Z,13.00
2023-03-13T08:31:32.024Z,11.90
2023-03-13T08:33:59.895Z,11.63
2023-03-13T08:36:31.121Z,12.77
2023-03-13T08:39:03.424Z,13.65
2023-03-13T08:41:35.013Z,14.77
2023-03-13T08:44:04.635Z,14.63
2023-03-13T08:46:33.424Z,9.63
2023-03-13T08:49:00.455Z,12.00
2023-03-13T08:51:29.376Z,11.38
2023-03-13T08:53:56.962Z,11.00
2023-03-13T08:56:26.640Z,11.02
2023-03-13T08:59:01.242Z,10.18
2023-03-13T09:01:34.535Z,10.80
2023-03-13T09:04:04.370Z,10.90
2023-03-13T09:06:36.543Z,10.32
2023-03-13T09:09:05.719Z,10.63
2023-03-13T09:11:33.690Z,9.30
2023-03-13T09:14:00.778Z,9.60
2023-03-13T09:16:30.704Z,9.15
2023-03-13T09:19:00.544Z,6.45
2023-03-13T09:21:31.413Z,6.55
2023-03-13T09:23:59.589Z,6.30
2023-03-13T09:26:28.043Z,6.00
2023-03-13T09:28:56.491Z,5.85
2023-03-13T09:31:24.880Z,6.00
2023-03-13T09:33:52.871Z,6.13
2023-03-13T09:36:22.639Z,6.80
2023-03-13T09:38:55.410Z,6.78
2023-03-13T09:41:44.408Z,6.78
2023-03-13T09:44:20.222Z,5.85
2023-03-13T09:47:04.552Z,7.07
2023-03-13T09:49:41.132Z,5.55
2023-03-13T09:54:43.433Z,5.50
2023-03-13T09:57:20.299Z,6.53
2023-03-13T09:59:57.720Z,6.18
2023-03-13T10:02:31.710Z,6.25
2023-03-13T10:05:16.669Z,5.20
2023-03-13T10:07:44.547Z,5.97
2023-03-13T10:10:15.425Z,7.43
2023-03-13T10:12:47.101Z,6.93
2023-03-13T10:15:46.805Z,6.95
2023-03-13T10:18:20.755Z,8.82
2023-03-13T10:20:51.436Z,7.53
2023-03-13T10:23:21.776Z,6.47
2023-03-13T10:25:49.058Z,6.05
2023-03-13T10:28:25.471Z,5.95
2023-03-13T10:31:07.071Z,5.63
2023-03-13T10:33:39.485Z,5.80
2023-03-13T10:36:13.062Z,5.45
2023-03-13T10:38:48.515Z,5.40
2023-03-13T10:41:31.328Z,5.57
2023-03-13T10:44:04.872Z,5.32
2023-03-13T10:46:35.005Z,5.13
2023-03-13T10:49:05.083Z,5.25
2023-03-13T10:51:40.298Z,6.05
2023-03-13T10:54:25.598Z,5.00
2023-03-13T10:57:09.701Z,4.97
2023-03-13T10:59:44.321Z,4.63
2023-03-13T11:02:24.896Z,5.55
2023-03-13T11:04:54.241Z,5.00
2023-03-13T11:07:33.520Z,5.80
2023-03-13T11:10:03.912Z,5.00
2023-03-13T11:12:36.304Z,6.55
2023-03-13T11:15:13.344Z,5.32
2023-03-13T11:17:44.931Z,5.75
2023-03-13T11:20:17.152Z,5.63
2023-03-13T11:23:13.559Z,5.45
2023-03-13T11:26:01.461Z,6.03
2023-03-13T11:28:32.815Z,5.93
2023-03-13T11:31:20.208Z,4.85
2023-03-13T11:34:03.502Z,4.30
2023-03-13T11:36:38.992Z,4.20
2023-03-13T11:39:33.691Z,4.10
2023-03-13T11:45:13.156Z,4.30
2023-03-13T11:47:51.913Z,4.25
2023-03-13T11:50:48.601Z,4.47
2023-03-13T11:53:25.020Z,4.27
2023-03-13T11:59:03.057Z,4.43
2023-03-13T12:01:41.751Z,3.97
2023-03-13T12:04:31.321Z,4.88
2023-03-13T12:07:11.057Z,4.47
2023-03-13T12:09:52.711Z,4.50
2023-03-13T12:12:44.960Z,5.65
2023-03-13T12:15:16.154Z,5.10
2023-03-13T12:17:51.955Z,4.90
2023-03-13T12:20:33.304Z,4.43
2023-03-13T12:23:22.703Z,4.70
2023-03-13T12:25:53.018Z,4.22
2023-03-13T12:28:36.012Z,4.78
2023-03-13T12:31:14.304Z,5.57
2023-03-13T12:33:52.901Z,5.78
2023-03-13T12:36:41.169Z,5.10
2023-03-13T12:39:27.099Z,5.10
2023-03-13T12:42:31.642Z,4.13
2023-03-13T12:45:00.182Z,4.65
2023-03-13T12:48:27.696Z,4.10
2023-03-13T12:51:41.790Z,4.90
2023-03-13T12:54:27.817Z,7.20
2023-03-13T12:57:27.910Z,6.35
2023-03-13T13:00:14.693Z,5.72
2023-03-13T13:02:42.117Z,5.45
2023-03-13T13:05:20.670Z,5.05
2023-03-13T13:07:57.666Z,5.15
2023-03-13T13:10:27.030Z,5.60
2023-03-13T13:13:17.441Z,5.22
2023-03-13T13:15:59.720Z,4.28
2023-03-13T13:18:29.707Z,5.40
2023-03-13T13:21:02.761Z,3.92
2023-03-13T13:23:37.759Z,3.70
2023-03-13T13:26:36.568Z,4.03
2023-03-13T13:29:12.632Z,4.03
2023-03-13T13:31:49.777Z,4.65
2023-03-13T13:34:56.649Z,5.43
2023-03-13T13:37:23.706Z,5.32
2023-03-13T13:39:54.708Z,5.47
2023-03-13T13:42:35.607Z,5.43
2023-03-13T13:45:05.648Z,4.20
2023-03-13T13:47:34.099Z,4.18
2023-03-13T13:50:01.314Z,5.07
2023-03-13T13:52:36.480Z,5.45
2023-03-13T13:55:25.396Z,4.10
2023-03-13T13:58:14.621Z,3.97
2023-03-13T14:00:55.111Z,4.68
2023-03-13T14:03:28.943Z,5.00
2023-03-13T14:06:33.747Z,4.63
2023-03-13T14:09:21.301Z,5.68
2023-03-13T14:11:48.366Z,4.53
2023-03-13T14:14:19.498Z,4.45
2023-03-13T14:16:57.532Z,4.70
2023-03-13T14:19:24.602Z,4.72
2023-03-13T14:21:51.904Z,5.38
2023-03-13T14:24:18.981Z,4.72
2023-03-13T14:26:46.726Z,4.22
2023-03-13T14:29:20.861Z,5.85
2023-03-13T14:31:59.141Z,6.78
2023-03-13T14:34:29.752Z,4.93
2023-03-13T14:37:17.111Z,4.03
2023-03-13T14:39:46.707Z,4.85
2023-03-13T14:42:17.254Z,4.20
2023-03-13T14:44:52.588Z,5.20
2023-03-13T14:47:24.080Z,5.13
2023-03-13T14:49:59.458Z,5.85
2023-03-13T14:52:28.636Z,6.85
2023-03-13T14:55:02.757Z,8.00
2023-03-13T14:57:30.461Z,9.90
2023-03-13T15:00:29.780Z,9.13
2023-03-13T15:03:19.097Z,12.15
2023-03-13T15:06:02.460Z,11.23
2023-03-13T15:08:30.650Z,13.30
2023-03-13T15:10:57.742Z,9.35
2023-03-13T15:13:32.472Z,10.57
2023-03-13T15:16:00.235Z,8.93
2023-03-13T15:18:30.626Z,7.75
2023-03-13T15:21:18.742Z,7.47
2023-03-13T15:23:57.587Z,7.55
2023-03-13T15:26:25.280Z,9.63
2023-03-13T15:28:52.459Z,7.40
2023-03-13T15:31:21.205Z,8.52
2023-03-13T15:33:53.859Z,7.78
2023-03-13T15:36:20.982Z,7.40
2023-03-13T15:38:48.342Z,10.65
2023-03-13T15:41:15.782Z,9.70
2023-03-13T15:43:45.212Z,9.07
2023-03-13T15:46:15.063Z,14.75
2023-03-13T15:48:43.422Z,9.30
2023-03-13T15:51:14.391Z,9.48
2023-03-13T15:53:42.317Z,8.88
2023-03-13T15:56:19.683Z,9.52
2023-03-13T15:58:47.901Z,8.15
2023-03-13T16:01:16.834Z,9.57
2023-03-13T16:03:44.304Z,9.40
2023-03-13T16:06:30.941Z,10.20
2023-03-13T16:09:02.997Z,9.25
2023-03-13T16:11:31.570Z,8.15
2023-03-13T16:13:58.658Z,9.18
2023-03-13T16:16:29.684Z,10.40
2023-03-13T16:18:58.605Z,8.82
2023-03-13T16:21:29.362Z,10.02
2023-03-13T16:23:57.057Z,11.95
2023-03-13T16:26:30.252Z,10.82
2023-03-13T16:28:59.440Z,9.20
2023-03-13T16:31:29.086Z,9.32
2023-03-13T16:33:57.130Z,10.05
2023-03-13T16:36:30.418Z,11.45
2023-03-13T16:38:58.990Z,10.88
2023-03-13T16:41:28.301Z,13.48
2023-03-13T16:43:56.679Z,12.15
2023-03-13T16:46:30.378Z,12.63
2023-03-13T16:48:58.753Z,13.05
2023-03-13T16:51:28.367Z,11.82
2023-03-13T16:53:57.347Z,11.52
2023-03-13T16:56:31.622Z,12.27
2023-03-13T16:58:58.930Z,12.98
2023-03-13T17:01:26.316Z,14.60
2023-03-13T17:03:53.348Z,13.07
2023-03-13T17:06:25.333Z,13.48
2023-03-13T17:08:52.406Z,13.25
2023-03-13T17:11:21.699Z,14.52
2023-03-13T17:13:52.339Z,14.73
2023-03-13T17:16:25.252Z,16.00
2023-03-13T17:18:53.975Z,14.35
2023-03-13T17:21:27.259Z,15.68
2023-03-13T17:23:54.160Z,15.93
2023-03-13T17:26:27.000Z,16.40
2023-03-13T17:28:55.995Z,17.35
2023-03-13T17:31:25.108Z,15.60
2023-03-13T17:33:52.142Z,15.88
2023-03-13T17:36:22.325Z,15.43
2023-03-13T17:38:54.727Z,14.10
2023-03-13T17:41:25.723Z,15.98
2023-03-13T17:43:54.935Z,15.55
2023-03-13T17:46:21.871Z,13.85
2023-03-13T17:48:52.343Z,15.43
2023-03-13T17:51:25.953Z,15.68
2023-03-13T17:53:54.271Z,14.35
2023-03-13T17:56:25.010Z,15.85
2023-03-13T17:58:55.161Z,14.40
2023-03-13T18:01:22.807Z,14.70
2023-03-13T18:03:52.265Z,15.20
2023-03-13T18:06:26.909Z,16.45
2023-03-13T18:08:56.937Z,16.73
2023-03-13T18:11:26.908Z,15.82
2023-03-13T18:13:54.799Z,14.07
2023-03-13T18:16:28.507Z,13.60
2023-03-13T18:18:56.050Z,11.30
2023-03-13T18:21:24.188Z,13.88
2023-03-13T18:24:00.236Z,11.70
2023-03-13T18:26:32.789Z,11.40
2023-03-13T18:29:01.701Z,9.45
2023-03-13T18:31:35.642Z,8.85
2023-03-13T18:34:05.966Z,8.00
2023-03-13T18:36:33.009Z,7.40
2023-03-13T18:39:03.334Z,7.95
2023-03-13T18:41:30.474Z,9.27
2023-03-13T18:43:57.638Z,8.38
2023-03-13T18:46:46.867Z,8.05
2023-03-13T18:49:22.006Z,7.68
2023-03-13T18:51:50.426Z,8.32
2023-03-13T18:54:17.734Z,7.50
2023-03-13T18:56:45.636Z,8.60
2023-03-13T18:59:14.526Z,9.40
2023-03-13T19:01:43.103Z,11.80
2023-03-13T19:04:10.484Z,12.48
2023-03-13T19:06:37.679Z,15.82
2023-03-13T19:09:41.685Z,16.25
2023-03-13T19:12:07.082Z,22.63
2023-03-13T19:14:34.172Z,30.55
2023-03-13T19:17:02.869Z,29.00
2023-03-13T19:19:32.160Z,30.40
2023-03-13T19:21:59.119Z,33.05
2023-03-13T19:24:29.613Z,29.42
2023-03-13T19:27:00.108Z,27.27
2023-03-13T19:29:28.870Z,28.65
2023-03-13T19:31:56.051Z,26.40
2023-03-13T19:34:23.338Z,26.10
2023-03-13T19:36:51.193Z,25.95
2023-03-13T19:39:29.112Z,26.10
2023-03-13T19:41:58.336Z,25.20
2023-03-13T19:44:25.731Z,24.88
2023-03-13T19:46:55.803Z,22.52
2023-03-13T19:49:22.787Z,23.13
2023-03-13T19:51:49.806Z,24.27
2023-03-13T19:54:18.831Z,20.10
2023-03-13T19:56:48.770Z,18.85
2023-03-13T19:59:22.197Z,18.60
2023-03-13T20:01:49.295Z,21.23
2023-03-13T20:04:16.684Z,22.90
2023-03-13T20:06:45.130Z,24.30
2023-03-13T20:09:17.895Z,20.65
2023-03-13T20:11:45.011Z,19.70
2023-03-13T20:14:12.448Z,23.35
2023-03-13T20:16:39.557Z,24.30
2023-03-13T20:19:06.965Z,22.50
2023-03-13T20:21:36.500Z,18.00
2023-03-13T20:24:05.846Z,21.50
2023-03-13T20:26:32.877Z,22.13
2023-03-13T20:28:59.812Z,19.65
2023-03-13T20:31:29.442Z,20.85
2023-03-13T20:33:58.313Z,23.95
2023-03-13T20:36:25.581Z,22.55
2023-03-13T20:38:52.790Z,23.25
2023-03-13T20:41:25.859Z,26.48
2023-03-13T20:43:53.303Z,26.48
2023-03-13T20:46:21.084Z,22.80
2023-03-13T20:48:48.338Z,21.98
2023-03-13T20:51:16.009Z,21.38
2023-03-13T20:53:43.140Z,20.52
2023-03-13T20:56:11.935Z,18.55
2023-03-13T20:58:39.342Z,16.52
2023-03-13T21:01:07.812Z,16.35
2023-03-13T21:03:36.134Z,14.68
2023-03-13T21:06:17.428Z,15.43
2023-03-13T21:08:45.785Z,13.88
2023-03-13T21:11:21.761Z,17.35
2023-03-13T21:13:49.509Z,16.80
2023-03-13T21:16:18.723Z,19.13
2023-03-13T21:18:46.528Z,18.30
2023-03-13T21:21:17.599Z,18.90
2023-03-13T21:23:46.227Z,17.92
2023-03-13T21:26:14.228Z,16.15
2023-03-13T21:28:41.315Z,15.40
2023-03-13T21:31:14.553Z,14.70
2023-03-13T21:33:42.224Z,14.25
2023-03-13T21:36:10.374Z,14.77
2023-03-13T21:38:37.517Z,15.40
2023-03-13T21:41:09.937Z,15.50
2023-03-13T21:43:37.597Z,13.45
2023-03-13T21:46:04.728Z,13.63
2023-03-13T21:48:31.658Z,12.20
2023-03-13T21:50:58.473Z,11.80
2023-03-13T21:53:25.312Z,11.43
2023-03-13T21:55:53.692Z,14.18
2023-03-13T21:58:20.643Z,15.40
2023-03-13T22:00:47.587Z,17.08
2023-03-13T22:03:17.156Z,18.10
2023-03-13T22:05:45.319Z,16.23
2023-03-13T22:08:13.007Z,19.23
2023-03-13T22:10:40.281Z,21.25
2023-03-13T22:13:12.691Z,20.40
2023-03-13T22:15:39.827Z,19.20
2023-03-13T22:18:06.771Z,17.65
2023-03-13T22:20:33.582Z,18.52
2023-03-13T22:23:00.457Z,16.02
2023-03-13T22:25:28.800Z,14.95
2023-03-13T22:27:55.962Z,13.85
2023-03-13T22:30:23.965Z,13.02
2023-03-13T22:32:50.959Z,12.77
2023-03-13T22:35:18.885Z,14.38
2023-03-13T22:37:45.829Z,14.48
2023-03-13T22:40:12.870Z,13.07
2023-03-13T22:42:39.746Z,13.25
2023-03-13T22:45:07.419Z,13.43
2023-03-13T22:47:34.609Z,14.45
2023-03-13T22:50:01.510Z,13.68
2023-03-13T22:52:31.068Z,13.95
2023-03-13T22:55:01.603Z,13.60
2023-03-13T22:57:29.332Z,15.70
2023-03-13T22:59:59.293Z,16.45
2023-03-13T23:02:29.765Z,16.33
2023-03-13T23:04:58.669Z,16.92
2023-03-13T23:07:29.598Z,19.30
2023-03-13T23:09:57.642Z,17.48
2023-03-13T23:12:25.869Z,16.23
2023-03-13T23:14:53.204Z,17.83
2023-03-13T23:17:20.169Z,17.73
2023-03-13T23:19:47.207Z,15.68
2023-03-13T23:22:18.185Z,15.60
2023-03-13T23:24:45.236Z,16.45
2023-03-13T23:27:12.482Z,14.35
2023-03-13T23:29:40.046Z,14.45
2023-03-13T23:32:09.760Z,12.80
2023-03-13T23:34:36.606Z,12.68
2023-03-13T23:37:03.767Z,10.45
2023-03-13T23:39:31.094Z,12.20
2023-03-13T23:41:57.914Z,10.85
2023-03-13T23:44:24.831Z,11.60
2023-03-13T23:46:51.832Z,10.85
2023-03-13T23:49:18.681Z,11.35
2023-03-13T23:51:45.544Z,11.45
2023-03-13T23:54:12.397Z,11.30
2023-03-13T23:56:39.261Z,12.25
2023-03-13T23:59:06.245Z,14.27
